createdAt,value
2018-12-02T00:00:30.276Z,16.62
2018-12-02T00:01:03.089Z,16.55
2018-12-02T00:01:35.689Z,18.50
2018-12-02T00:02:08.602Z,17.77
2018-12-02T00:02:41.230Z,16.02
2018-12-02T00:03:13.921Z,16.15
2018-12-02T00:03:46.516Z,17.12
2018-12-02T00:04:19.625Z,16.75
2018-12-02T00:04:52.270Z,18.07
2018-12-02T00:05:25.449Z,16.37
2018-12-02T00:05:59.513Z,16.80
2018-12-02T00:06:38.366Z,16.65
2018-12-02T00:07:11.526Z,17.07
2018-12-02T00:07:44.150Z,16.87
2018-12-02T00:08:16.835Z,15.75
2018-12-02T00:08:49.493Z,17.65
2018-12-02T00:09:22.092Z,16.40
2018-12-02T00:09:54.766Z,14.63
2018-12-02T00:10:27.527Z,17.12
2018-12-02T00:11:00.146Z,15.18
2018-12-02T00:11:32.922Z,16.00
2018-12-02T00:12:06.353Z,15.90
2018-12-02T00:12:39.016Z,15.85
2018-12-02T00:13:11.659Z,15.53
2018-12-02T00:13:44.271Z,16.90
2018-12-02T00:14:16.978Z,16.73
2018-12-02T00:14:49.607Z,15.28
2018-12-02T00:15:23.441Z,15.63
2018-12-02T00:15:56.070Z,16.82
2018-12-02T00:16:28.704Z,15.25
2018-12-02T00:17:01.338Z,15.90
2018-12-02T00:17:34.007Z,15.78
2018-12-02T00:18:09.051Z,15.10
2018-12-02T00:18:41.719Z,17.02
2018-12-02T00:19:14.346Z,16.55
2018-12-02T00:19:46.961Z,15.15
2018-12-02T00:20:19.592Z,15.60
2018-12-02T00:20:52.221Z,16.12
2018-12-02T00:21:24.851Z,15.15
2018-12-02T00:21:57.474Z,15.88
2018-12-02T00:22:30.183Z,16.57
2018-12-02T00:23:02.871Z,17.30
2018-12-02T00:23:35.498Z,15.65
2018-12-02T00:24:08.114Z,15.88
2018-12-02T00:24:40.751Z,16.35
2018-12-02T00:25:14.324Z,16.40
2018-12-02T00:25:46.958Z,15.93
2018-12-02T00:26:19.572Z,16.10
2018-12-02T00:26:52.190Z,15.13
2018-12-02T00:27:24.815Z,17.15
2018-12-02T00:27:58.646Z,15.90
2018-12-02T00:28:31.285Z,15.75
2018-12-02T00:29:03.922Z,15.35
2018-12-02T00:29:36.545Z,15.93
2018-12-02T00:30:12.249Z,14.00
2018-12-02T00:30:44.848Z,14.83
2018-12-02T00:31:17.472Z,16.42
2018-12-02T00:31:50.145Z,16.02
2018-12-02T00:32:22.746Z,15.23
2018-12-02T00:32:55.381Z,15.45
2018-12-02T00:33:27.987Z,16.00
2018-12-02T00:34:00.647Z,15.80
2018-12-02T00:34:33.265Z,16.73
2018-12-02T00:35:07.411Z,17.05
2018-12-02T00:35:40.025Z,15.58
2018-12-02T00:36:12.653Z,15.75
2018-12-02T00:36:45.263Z,16.07
2018-12-02T00:37:17.928Z,15.10
2018-12-02T00:37:51.746Z,16.82
2018-12-02T00:38:24.396Z,15.55
2018-12-02T00:38:57.024Z,16.12
2018-12-02T00:39:29.695Z,16.50
2018-12-02T00:40:03.059Z,15.70
2018-12-02T00:40:35.714Z,16.10
2018-12-02T00:41:08.343Z,16.80
2018-12-02T00:41:40.966Z,15.15
2018-12-02T00:42:13.576Z,15.25
2018-12-02T00:42:49.118Z,15.08
2018-12-02T00:43:21.728Z,17.50
2018-12-02T00:43:54.350Z,16.65
2018-12-02T00:44:26.961Z,18.15
2018-12-02T00:44:59.606Z,18.12
2018-12-02T00:45:35.120Z,16.90
2018-12-02T00:46:07.755Z,16.77
2018-12-02T00:46:40.386Z,16.60
2018-12-02T00:47:13.004Z,16.25
2018-12-02T00:47:45.683Z,16.65
2018-12-02T00:48:18.302Z,15.95
2018-12-02T00:48:50.926Z,15.32
2018-12-02T00:49:23.553Z,16.27
2018-12-02T00:49:56.172Z,15.78
2018-12-02T00:50:28.838Z,16.77
2018-12-02T00:51:01.459Z,16.23
2018-12-02T00:51:34.101Z,16.17
2018-12-02T00:52:06.723Z,15.78
2018-12-02T00:52:39.509Z,16.23
2018-12-02T00:53:12.146Z,17.05
2018-12-02T00:53:44.771Z,15.23
2018-12-02T00:54:17.425Z,17.02
2018-12-02T00:54:50.036Z,16.07
2018-12-02T00:55:25.614Z,16.25
2018-12-02T00:55:59.189Z,17.23
2018-12-02T00:56:33.764Z,16.05
2018-12-02T00:57:06.380Z,16.10
2018-12-02T00:57:39.018Z,15.40
2018-12-02T00:58:11.664Z,17.10
2018-12-02T00:58:44.281Z,16.25
2018-12-02T00:59:16.884Z,16.12
2018-12-02T00:59:49.497Z,18.23
2018-12-02T01:00:22.114Z,16.75
2018-12-02T01:00:54.775Z,16.30
2018-12-02T01:01:27.411Z,17.07
2018-12-02T01:02:00.019Z,17.25
2018-12-02T01:02:32.705Z,17.17
2018-12-02T01:03:07.810Z,16.93
2018-12-02T01:03:40.450Z,16.35
2018-12-02T01:04:13.073Z,17.40
2018-12-02T01:04:45.677Z,14.93
2018-12-02T01:05:19.208Z,17.35
2018-12-02T01:05:51.812Z,16.90
2018-12-02T01:06:24.433Z,18.05
2018-12-02T01:06:57.108Z,16.70
2018-12-02T01:07:29.758Z,16.80
2018-12-02T01:08:02.377Z,16.65
2018-12-02T01:08:35.007Z,16.37
2018-12-02T01:09:07.704Z,17.30
2018-12-02T01:09:40.335Z,16.95
2018-12-02T01:10:14.065Z,15.72
2018-12-02T01:10:46.688Z,16.37
2018-12-02T01:11:19.291Z,16.73
2018-12-02T01:11:51.888Z,16.75
2018-12-02T01:12:24.551Z,16.48
2018-12-02T01:12:58.054Z,15.95
2018-12-02T01:13:30.704Z,16.40
2018-12-02T01:14:03.343Z,16.50
2018-12-02T01:14:35.960Z,17.48
2018-12-02T01:15:10.559Z,16.55
2018-12-02T01:15:43.170Z,16.37
2018-12-02T01:16:15.792Z,17.20
2018-12-02T01:16:48.417Z,17.23
2018-12-02T01:17:21.034Z,17.12
2018-12-02T01:17:53.724Z,16.75
2018-12-02T01:18:26.348Z,16.95
2018-12-02T01:18:58.965Z,18.80
2018-12-02T01:19:31.595Z,17.25
2018-12-02T01:20:06.107Z,15.08
2018-12-02T01:20:39.221Z,17.55
2018-12-02T01:21:11.814Z,17.80
2018-12-02T01:21:44.415Z,16.45
2018-12-02T01:22:17.009Z,17.15
2018-12-02T01:22:49.671Z,15.70
2018-12-02T01:23:22.308Z,16.00
2018-12-02T01:23:54.946Z,16.80
2018-12-02T01:24:27.599Z,16.95
2018-12-02T01:25:00.235Z,17.55
2018-12-02T01:25:32.868Z,16.50
2018-12-02T01:26:05.530Z,16.87
2018-12-02T01:26:38.165Z,17.25
2018-12-02T01:27:10.793Z,16.30
2018-12-02T01:27:44.217Z,17.92
2018-12-02T01:28:16.847Z,16.85
2018-12-02T01:28:49.476Z,17.10
2018-12-02T01:29:22.107Z,15.85
2018-12-02T01:29:54.957Z,16.17
2018-12-02T01:30:27.605Z,16.42
2018-12-02T01:31:00.214Z,16.87
2018-12-02T01:31:32.824Z,17.50
2018-12-02T01:32:05.490Z,16.85
2018-12-02T01:32:38.204Z,18.87
2018-12-02T01:33:10.808Z,17.07
2018-12-02T01:33:43.428Z,18.82
2018-12-02T01:34:16.089Z,17.10
2018-12-02T01:34:48.684Z,18.00
2018-12-02T01:35:21.356Z,17.27
2018-12-02T01:35:53.971Z,16.93
2018-12-02T01:36:26.582Z,18.00
2018-12-02T01:36:59.200Z,17.42
2018-12-02T01:37:31.811Z,17.02
2018-12-02T01:38:04.649Z,16.85
2018-12-02T01:38:37.257Z,18.75
2018-12-02T01:39:09.877Z,17.62
2018-12-02T01:39:42.496Z,17.30
2018-12-02T01:40:16.210Z,17.07
2018-12-02T01:40:48.819Z,18.40
2018-12-02T01:41:21.420Z,18.70
2018-12-02T01:41:54.035Z,19.10
2018-12-02T01:42:26.642Z,16.50
2018-12-02T01:42:59.250Z,17.65
2018-12-02T01:43:31.857Z,17.60
2018-12-02T01:44:04.515Z,17.40
2018-12-02T01:44:37.128Z,17.82
2018-12-02T01:45:12.884Z,16.93
2018-12-02T01:45:45.509Z,16.80
2018-12-02T01:46:18.146Z,16.95
2018-12-02T01:46:50.769Z,17.50
2018-12-02T01:47:23.398Z,17.50
2018-12-02T01:47:56.283Z,18.77
2018-12-02T01:48:28.914Z,18.57
2018-12-02T01:49:01.530Z,18.80
2018-12-02T01:49:34.165Z,16.10
2018-12-02T01:50:15.741Z,17.67
2018-12-02T01:50:48.363Z,18.90
2018-12-02T01:51:20.988Z,17.90
2018-12-02T01:51:53.630Z,18.15
2018-12-02T01:52:26.260Z,19.20
2018-12-02T01:52:58.861Z,17.55
2018-12-02T01:53:31.466Z,17.73
2018-12-02T01:54:04.305Z,18.60
2018-12-02T01:54:36.907Z,18.50
2018-12-02T01:55:09.634Z,17.45
2018-12-02T01:55:42.282Z,16.60
2018-12-02T01:56:14.915Z,16.55
2018-12-02T01:56:47.547Z,18.10
2018-12-02T01:57:20.170Z,16.17
2018-12-02T01:57:52.814Z,16.20
2018-12-02T01:58:25.461Z,16.95
2018-12-02T01:58:58.084Z,18.07
2018-12-02T01:59:30.689Z,17.55
2018-12-02T02:00:08.612Z,17.05
2018-12-02T02:00:41.238Z,17.73
2018-12-02T02:01:13.885Z,16.95
2018-12-02T02:01:46.511Z,18.45
2018-12-02T02:02:19.126Z,18.00
2018-12-02T02:02:52.144Z,16.82
2018-12-02T02:03:24.755Z,17.62
2018-12-02T02:03:57.371Z,18.50
2018-12-02T02:04:30.016Z,16.55
2018-12-02T02:05:02.654Z,17.35
2018-12-02T02:05:35.255Z,18.05
2018-12-02T02:06:07.868Z,17.00
2018-12-02T02:06:40.506Z,17.07
2018-12-02T02:07:13.117Z,18.57
2018-12-02T02:07:45.860Z,16.48
2018-12-02T02:08:18.505Z,16.55
2018-12-02T02:08:51.137Z,17.42
2018-12-02T02:09:23.750Z,17.67
2018-12-02T02:09:56.363Z,18.40
2018-12-02T02:10:29.059Z,17.48
2018-12-02T02:11:01.672Z,17.40
2018-12-02T02:11:34.269Z,18.82
2018-12-02T02:12:06.938Z,17.55
2018-12-02T02:12:39.548Z,16.45
2018-12-02T02:13:12.171Z,18.10
2018-12-02T02:13:44.773Z,16.87
2018-12-02T02:14:17.382Z,17.70
2018-12-02T02:14:50.007Z,18.42
2018-12-02T02:15:22.777Z,17.42
2018-12-02T02:15:55.391Z,17.80
2018-12-02T02:16:28.023Z,18.73
2018-12-02T02:17:00.628Z,17.67
2018-12-02T02:17:33.287Z,17.80
2018-12-02T02:18:05.898Z,17.65
2018-12-02T02:18:38.521Z,18.02
2018-12-02T02:19:11.141Z,17.52
2018-12-02T02:19:43.777Z,17.12
2018-12-02T02:20:18.116Z,16.75
2018-12-02T02:20:50.748Z,17.17
2018-12-02T02:21:23.360Z,17.87
2018-12-02T02:21:55.968Z,17.95
2018-12-02T02:22:28.614Z,18.25
2018-12-02T02:23:01.294Z,17.52
2018-12-02T02:23:33.901Z,18.32
2018-12-02T02:24:06.532Z,17.73
2018-12-02T02:24:39.130Z,17.42
2018-12-02T02:25:12.734Z,19.37
2018-12-02T02:25:45.365Z,18.35
2018-12-02T02:26:17.956Z,16.85
2018-12-02T02:26:50.576Z,17.82
2018-12-02T02:27:23.195Z,17.70
2018-12-02T02:27:57.063Z,16.75
2018-12-02T02:28:29.701Z,18.02
2018-12-02T02:29:02.346Z,19.17
2018-12-02T02:29:34.947Z,18.57
2018-12-02T02:30:14.112Z,18.55
2018-12-02T02:30:46.723Z,18.12
2018-12-02T02:31:19.366Z,17.75
2018-12-02T02:31:51.976Z,17.10
2018-12-02T02:32:24.595Z,17.67
2018-12-02T02:32:57.301Z,16.55
2018-12-02T02:33:29.953Z,18.23
2018-12-02T02:34:02.615Z,18.02
2018-12-02T02:34:35.263Z,17.42
2018-12-02T02:35:08.440Z,18.45
2018-12-02T02:35:41.094Z,18.90
2018-12-02T02:36:13.722Z,17.00
2018-12-02T02:36:46.329Z,18.02
2018-12-02T02:37:18.935Z,18.80
2018-12-02T02:37:54.486Z,17.10
2018-12-02T02:38:27.103Z,18.32
2018-12-02T02:38:59.715Z,16.85
2018-12-02T02:39:32.349Z,16.77
2018-12-02T02:40:22.637Z,19.35
2018-12-02T02:40:55.264Z,16.97
2018-12-02T02:41:27.873Z,17.55
2018-12-02T02:42:00.474Z,16.15
2018-12-02T02:42:33.110Z,17.57
2018-12-02T02:43:05.794Z,18.00
2018-12-02T02:43:38.408Z,17.23
2018-12-02T02:44:11.023Z,17.67
2018-12-02T02:44:43.665Z,17.32
2018-12-02T02:45:16.338Z,17.85
2018-12-02T02:45:48.964Z,17.48
2018-12-02T02:46:21.587Z,19.62
2018-12-02T02:46:54.276Z,16.25
2018-12-02T02:47:26.889Z,17.45
2018-12-02T02:47:59.506Z,17.35
2018-12-02T02:48:32.141Z,18.20
2018-12-02T02:49:05.103Z,17.82
2018-12-02T02:49:37.718Z,17.20
2018-12-02T02:50:19.533Z,17.37
2018-12-02T02:50:52.174Z,17.48
2018-12-02T02:51:24.786Z,16.45
2018-12-02T02:51:57.433Z,17.80
2018-12-02T02:52:30.046Z,17.32
2018-12-02T02:53:02.679Z,16.80
2018-12-02T02:53:35.292Z,17.70
2018-12-02T02:54:07.923Z,19.05
2018-12-02T02:54:40.540Z,17.55
2018-12-02T02:55:13.241Z,17.35
2018-12-02T02:55:45.895Z,18.48
2018-12-02T02:56:18.497Z,17.50
2018-12-02T02:56:51.110Z,17.15
2018-12-02T02:57:23.720Z,17.45
2018-12-02T02:57:56.573Z,18.05
2018-12-02T02:58:29.204Z,16.55
2018-12-02T02:59:01.850Z,18.50
2018-12-02T02:59:34.493Z,16.90
2018-12-02T03:00:10.093Z,18.40
2018-12-02T03:00:42.690Z,17.50
2018-12-02T03:01:15.305Z,16.35
2018-12-02T03:01:47.924Z,17.25
2018-12-02T03:02:20.548Z,17.05
2018-12-02T03:02:53.208Z,17.00
2018-12-02T03:03:25.841Z,16.93
2018-12-02T03:03:58.474Z,15.80
2018-12-02T03:04:31.102Z,15.80
2018-12-02T03:05:03.873Z,16.42
2018-12-02T03:05:36.495Z,17.23
2018-12-02T03:06:09.132Z,17.42
2018-12-02T03:06:41.777Z,15.80
2018-12-02T03:07:14.403Z,17.55
2018-12-02T03:07:47.012Z,16.10
2018-12-02T03:08:19.614Z,17.75
2018-12-02T03:08:52.300Z,16.57
2018-12-02T03:09:24.906Z,17.70
2018-12-02T03:09:57.530Z,15.18
2018-12-02T03:10:30.158Z,16.17
2018-12-02T03:11:02.764Z,15.80
2018-12-02T03:11:35.490Z,16.25
2018-12-02T03:12:08.127Z,18.65
2018-12-02T03:12:40.769Z,17.15
2018-12-02T03:13:13.387Z,17.40
2018-12-02T03:13:46.089Z,17.17
2018-12-02T03:14:18.680Z,17.10
2018-12-02T03:14:51.289Z,16.50
2018-12-02T03:15:23.991Z,17.05
2018-12-02T03:15:56.605Z,16.52
2018-12-02T03:16:29.227Z,17.42
2018-12-02T03:17:01.846Z,16.02
2018-12-02T03:17:34.456Z,16.20
2018-12-02T03:18:07.075Z,16.45
2018-12-02T03:18:39.747Z,17.00
2018-12-02T03:19:12.357Z,16.07
2018-12-02T03:19:44.973Z,16.90
2018-12-02T03:20:19.534Z,16.57
2018-12-02T03:20:52.164Z,16.20
2018-12-02T03:21:24.795Z,16.73
2018-12-02T03:21:57.425Z,15.70
2018-12-02T03:22:30.029Z,15.48
2018-12-02T03:23:02.704Z,15.50
2018-12-02T03:23:35.324Z,17.42
2018-12-02T03:24:07.969Z,17.40
2018-12-02T03:24:40.587Z,16.30
2018-12-02T03:25:14.213Z,16.42
2018-12-02T03:25:46.839Z,16.80
2018-12-02T03:26:19.442Z,16.23
2018-12-02T03:26:52.062Z,15.72
2018-12-02T03:27:24.686Z,15.80
2018-12-02T03:27:57.309Z,16.35
2018-12-02T03:28:29.947Z,15.20
2018-12-02T03:29:02.574Z,16.87
2018-12-02T03:29:35.195Z,15.48
2018-12-02T03:30:16.442Z,15.50
2018-12-02T03:30:49.068Z,16.50
2018-12-02T03:31:21.694Z,15.65
2018-12-02T03:31:54.347Z,15.10
2018-12-02T03:32:26.953Z,15.38
2018-12-02T03:32:59.580Z,14.58
2018-12-02T03:33:32.234Z,17.07
2018-12-02T03:34:04.884Z,16.02
2018-12-02T03:34:37.526Z,16.85
2018-12-02T03:35:11.881Z,15.95
2018-12-02T03:35:44.485Z,15.88
2018-12-02T03:36:17.099Z,14.85
2018-12-02T03:36:49.718Z,15.13
2018-12-02T03:37:22.338Z,15.48
2018-12-02T03:37:55.686Z,14.63
2018-12-02T03:38:28.307Z,16.05
2018-12-02T03:39:00.924Z,16.00
2018-12-02T03:39:33.538Z,15.72
2018-12-02T03:40:10.679Z,15.40
2018-12-02T03:40:43.298Z,16.62
2018-12-02T03:41:15.919Z,15.68
2018-12-02T03:41:48.591Z,15.65
2018-12-02T03:42:21.191Z,16.00
2018-12-02T03:42:53.888Z,14.50
2018-12-02T03:43:26.515Z,16.60
2018-12-02T03:43:59.145Z,15.85
2018-12-02T03:44:31.800Z,16.37
2018-12-02T03:45:05.294Z,16.02
2018-12-02T03:45:37.932Z,15.65
2018-12-02T03:46:10.555Z,15.58
2018-12-02T03:46:43.162Z,15.53
2018-12-02T03:47:15.756Z,15.55
2018-12-02T03:47:48.394Z,15.45
2018-12-02T03:48:21.019Z,15.53
2018-12-02T03:48:53.652Z,15.70
2018-12-02T03:49:26.254Z,15.38
2018-12-02T03:49:58.917Z,16.20
2018-12-02T03:50:31.541Z,15.30
2018-12-02T03:51:04.554Z,14.50
2018-12-02T03:51:37.179Z,15.90
2018-12-02T03:52:09.789Z,15.98
2018-12-02T03:52:42.528Z,15.95
2018-12-02T03:53:15.151Z,15.88
2018-12-02T03:53:47.757Z,15.43
2018-12-02T03:54:20.383Z,15.58
2018-12-02T03:54:52.980Z,15.23
2018-12-02T03:55:25.617Z,16.50
2018-12-02T03:55:58.250Z,16.52
2018-12-02T03:56:30.861Z,15.60
2018-12-02T03:57:03.533Z,13.98
2018-12-02T03:57:36.176Z,15.00
2018-12-02T03:58:08.798Z,15.63
2018-12-02T03:58:41.414Z,15.15
2018-12-02T03:59:14.151Z,15.15
2018-12-02T03:59:46.771Z,15.63
2018-12-02T04:00:23.586Z,14.90
2018-12-02T04:00:56.216Z,16.40
2018-12-02T04:01:28.833Z,14.58
2018-12-02T04:02:01.461Z,14.55
2018-12-02T04:02:34.070Z,14.05
2018-12-02T04:03:06.695Z,14.95
2018-12-02T04:03:39.285Z,16.35
2018-12-02T04:04:11.876Z,14.85
2018-12-02T04:04:44.486Z,15.03
2018-12-02T04:05:18.068Z,15.20
2018-12-02T04:05:50.694Z,15.80
2018-12-02T04:06:23.314Z,15.48
2018-12-02T04:06:55.931Z,14.10
2018-12-02T04:07:28.546Z,16.40
2018-12-02T04:08:01.174Z,16.40
2018-12-02T04:08:33.804Z,14.95
2018-12-02T04:09:08.173Z,14.70
2018-12-02T04:09:40.796Z,15.75
2018-12-02T04:10:14.282Z,14.30
2018-12-02T04:10:46.894Z,15.50
2018-12-02T04:11:19.511Z,14.53
2018-12-02T04:11:52.156Z,15.60
2018-12-02T04:12:24.757Z,16.17
2018-12-02T04:12:57.370Z,15.43
2018-12-02T04:13:29.969Z,14.00
2018-12-02T04:14:02.779Z,16.57
2018-12-02T04:14:35.410Z,15.65
2018-12-02T04:15:11.174Z,16.05
2018-12-02T04:15:43.769Z,14.80
2018-12-02T04:16:16.402Z,14.40
2018-12-02T04:16:49.024Z,15.60
2018-12-02T04:17:21.675Z,15.28
2018-12-02T04:17:54.305Z,15.65
2018-12-02T04:18:26.918Z,15.15
2018-12-02T04:18:59.543Z,14.80
2018-12-02T04:19:32.166Z,15.28
2018-12-02T04:20:06.720Z,15.10
2018-12-02T04:20:39.324Z,14.55
2018-12-02T04:21:11.959Z,15.48
2018-12-02T04:21:44.569Z,15.18
2018-12-02T04:22:17.226Z,15.10
2018-12-02T04:22:51.511Z,15.95
2018-12-02T04:23:24.147Z,14.75
2018-12-02T04:23:56.764Z,15.25
2018-12-02T04:24:29.394Z,14.18
2018-12-02T04:25:02.014Z,16.05
2018-12-02T04:25:34.659Z,15.50
2018-12-02T04:26:07.272Z,15.88
2018-12-02T04:26:39.869Z,15.93
2018-12-02T04:27:12.479Z,15.30
2018-12-02T04:27:45.111Z,15.35
2018-12-02T04:28:17.758Z,14.55
2018-12-02T04:28:50.383Z,15.00
2018-12-02T04:29:22.969Z,14.45
2018-12-02T04:29:55.597Z,14.87
2018-12-02T04:30:28.203Z,15.25
2018-12-02T04:31:00.801Z,14.35
2018-12-02T04:31:33.417Z,15.90
2018-12-02T04:32:06.216Z,15.08
2018-12-02T04:32:38.845Z,15.28
2018-12-02T04:33:11.458Z,16.52
2018-12-02T04:33:44.124Z,15.72
2018-12-02T04:34:16.756Z,13.65
2018-12-02T04:34:49.376Z,15.45
2018-12-02T04:35:23.893Z,16.27
2018-12-02T04:35:56.501Z,14.63
2018-12-02T04:36:29.113Z,15.25
2018-12-02T04:37:01.723Z,15.50
2018-12-02T04:37:34.325Z,15.40
2018-12-02T04:38:06.946Z,15.78
2018-12-02T04:38:39.538Z,15.10
2018-12-02T04:39:12.215Z,13.88
2018-12-02T04:39:44.814Z,14.80
2018-12-02T04:40:17.434Z,14.15
2018-12-02T04:40:50.058Z,14.60
2018-12-02T04:41:22.652Z,15.98
2018-12-02T04:41:55.245Z,13.15
2018-12-02T04:42:27.828Z,14.65
2018-12-02T04:43:00.441Z,15.10
2018-12-02T04:43:33.083Z,14.45
2018-12-02T04:44:05.696Z,14.80
2018-12-02T04:44:38.329Z,14.53
2018-12-02T04:45:11.952Z,15.08
2018-12-02T04:45:44.675Z,14.63
2018-12-02T04:46:17.271Z,15.70
2018-12-02T04:46:49.897Z,14.50
2018-12-02T04:47:22.490Z,14.80
2018-12-02T04:47:55.106Z,14.68
2018-12-02T04:48:27.717Z,14.85
2018-12-02T04:49:00.326Z,15.50
2018-12-02T04:49:32.938Z,15.25
2018-12-02T04:50:11.521Z,14.13
2018-12-02T04:50:44.109Z,13.93
2018-12-02T04:51:16.750Z,15.18
2018-12-02T04:51:49.345Z,15.88
2018-12-02T04:52:21.951Z,14.45
2018-12-02T04:52:54.567Z,14.70
2018-12-02T04:53:27.169Z,14.95
2018-12-02T04:53:59.750Z,15.05
2018-12-02T04:54:32.358Z,15.40
2018-12-02T04:55:05.891Z,15.65
2018-12-02T04:55:38.522Z,14.60
2018-12-02T04:56:11.129Z,15.68
2018-12-02T04:56:43.747Z,15.20
2018-12-02T04:57:16.328Z,16.52
2018-12-02T04:57:48.966Z,14.78
2018-12-02T04:58:21.576Z,15.60
2018-12-02T04:58:54.197Z,14.68
2018-12-02T04:59:26.788Z,14.90
2018-12-02T04:59:59.400Z,14.60
2018-12-02T05:00:32.005Z,14.28
2018-12-02T05:01:04.766Z,14.33
2018-12-02T05:01:37.360Z,15.63
2018-12-02T05:02:09.980Z,14.58
2018-12-02T05:02:43.202Z,14.95
2018-12-02T05:03:15.798Z,14.10
2018-12-02T05:03:48.411Z,14.78
2018-12-02T05:04:21.021Z,14.53
2018-12-02T05:04:53.624Z,15.13
2018-12-02T05:05:26.223Z,13.98
2018-12-02T05:05:58.850Z,15.00
2018-12-02T05:06:31.499Z,15.48
2018-12-02T05:07:04.219Z,15.40
2018-12-02T05:07:36.873Z,14.03
2018-12-02T05:08:09.456Z,14.23
2018-12-02T05:08:42.090Z,15.05
2018-12-02T05:09:14.708Z,15.15
2018-12-02T05:09:47.307Z,14.28
2018-12-02T05:10:20.873Z,15.28
2018-12-02T05:10:53.551Z,14.25
2018-12-02T05:11:26.173Z,15.10
2018-12-02T05:11:58.822Z,14.58
2018-12-02T05:12:31.430Z,15.32
2018-12-02T05:13:04.071Z,13.53
2018-12-02T05:13:36.688Z,15.00
2018-12-02T05:14:09.277Z,14.90
2018-12-02T05:14:41.874Z,14.63
2018-12-02T05:15:15.623Z,14.73
2018-12-02T05:15:48.224Z,14.07
2018-12-02T05:16:20.839Z,16.07
2018-12-02T05:16:53.447Z,14.10
2018-12-02T05:17:26.070Z,15.20
2018-12-02T05:17:58.706Z,15.10
2018-12-02T05:18:31.314Z,15.93
2018-12-02T05:19:03.956Z,13.53
2018-12-02T05:19:36.570Z,14.25
2018-12-02T05:20:12.191Z,14.35
2018-12-02T05:20:44.788Z,13.78
2018-12-02T05:21:17.385Z,14.80
2018-12-02T05:21:49.980Z,13.70
2018-12-02T05:22:22.580Z,15.05
2018-12-02T05:22:55.221Z,14.40
2018-12-02T05:23:27.903Z,14.87
2018-12-02T05:24:00.522Z,14.28
2018-12-02T05:24:33.121Z,13.43
2018-12-02T05:25:07.344Z,14.15
2018-12-02T05:25:39.941Z,14.28
2018-12-02T05:26:12.533Z,15.10
2018-12-02T05:26:45.563Z,14.50
2018-12-02T05:27:18.145Z,14.70
2018-12-02T05:27:50.732Z,14.05
2018-12-02T05:28:23.359Z,14.38
2018-12-02T05:28:55.948Z,14.20
2018-12-02T05:29:28.537Z,14.07
2018-12-02T05:30:01.146Z,14.75
2018-12-02T05:30:33.754Z,14.18
2018-12-02T05:31:06.353Z,13.75
2018-12-02T05:31:38.932Z,14.47
2018-12-02T05:32:11.510Z,14.53
2018-12-02T05:32:44.905Z,14.13
2018-12-02T05:33:17.526Z,14.15
2018-12-02T05:33:50.147Z,14.58
2018-12-02T05:34:22.762Z,13.13
2018-12-02T05:34:55.355Z,14.55
2018-12-02T05:35:27.970Z,14.55
2018-12-02T05:36:00.572Z,13.45
2018-12-02T05:36:33.165Z,15.23
2018-12-02T05:37:05.765Z,14.58
2018-12-02T05:37:38.402Z,13.68
2018-12-02T05:38:11.005Z,15.48
2018-12-02T05:38:43.600Z,16.55
2018-12-02T05:39:16.249Z,16.45
2018-12-02T05:39:48.857Z,14.55
2018-12-02T05:40:22.534Z,14.68
2018-12-02T05:40:55.135Z,16.62
2018-12-02T05:42:32.157Z,14.10
2018-12-02T05:43:04.837Z,13.68
2018-12-02T05:43:37.470Z,13.25
2018-12-02T05:44:10.106Z,14.38
2018-12-02T05:44:42.739Z,14.10
2018-12-02T05:45:16.281Z,13.62
2018-12-02T05:45:48.898Z,13.88
2018-12-02T05:46:21.493Z,13.55
2018-12-02T05:46:54.117Z,13.45
2018-12-02T05:47:26.747Z,13.50
2018-12-02T05:47:59.360Z,13.70
2018-12-02T05:48:31.964Z,13.25
2018-12-02T05:49:04.995Z,14.00
2018-12-02T05:49:37.608Z,15.50
2018-12-02T05:50:12.414Z,15.68
2018-12-02T05:50:45.014Z,15.60
2018-12-02T05:51:17.600Z,13.78
2018-12-02T05:51:50.197Z,13.38
2018-12-02T05:52:22.821Z,14.20
2018-12-02T05:52:58.914Z,14.87
2018-12-02T05:53:31.522Z,13.95
2018-12-02T05:54:04.346Z,13.93
2018-12-02T05:54:36.947Z,14.47
2018-12-02T05:55:11.142Z,14.00
2018-12-02T05:55:43.768Z,14.18
2018-12-02T05:56:16.380Z,14.30
2018-12-02T05:56:48.982Z,13.83
2018-12-02T05:57:21.593Z,15.08
2018-12-02T05:57:54.202Z,14.10
2018-12-02T05:58:26.793Z,13.80
2018-12-02T05:58:59.398Z,15.35
2018-12-02T05:59:32.010Z,14.00
2018-12-02T06:00:10.807Z,13.80
2018-12-02T06:00:44.747Z,13.60
2018-12-02T06:01:19.776Z,13.58
2018-12-02T06:01:54.682Z,11.85
2018-12-02T06:02:29.826Z,13.68
2018-12-02T06:03:02.466Z,14.80
2018-12-02T06:03:35.076Z,13.90
2018-12-02T06:04:07.688Z,14.40
2018-12-02T06:04:40.306Z,13.70
2018-12-02T06:05:15.013Z,13.95
2018-12-02T06:05:47.660Z,14.95
2018-12-02T06:06:20.307Z,15.15
2018-12-02T06:06:52.914Z,14.38
2018-12-02T06:07:25.505Z,14.00
2018-12-02T06:07:58.132Z,13.85
2018-12-02T06:08:30.774Z,12.70
2018-12-02T06:09:05.076Z,14.45
2018-12-02T06:09:37.662Z,14.50
2018-12-02T06:10:13.333Z,14.20
2018-12-02T06:10:45.949Z,14.87
2018-12-02T06:11:18.558Z,13.53
2018-12-02T06:11:51.192Z,12.78
2018-12-02T06:12:23.769Z,14.35
2018-12-02T06:12:56.369Z,14.28
2018-12-02T06:13:28.973Z,14.40
2018-12-02T06:14:01.583Z,14.18
2018-12-02T06:14:34.213Z,13.25
2018-12-02T06:15:10.950Z,13.30
2018-12-02T06:15:43.562Z,14.23
2018-12-02T06:16:16.172Z,13.20
2018-12-02T06:16:48.785Z,12.15
2018-12-02T06:17:21.430Z,13.90
2018-12-02T06:17:54.111Z,14.47
2018-12-02T06:18:26.722Z,13.18
2018-12-02T06:18:59.313Z,12.98
2018-12-02T06:19:31.925Z,12.33
2018-12-02T06:20:09.833Z,12.82
2018-12-02T06:20:42.432Z,13.65
2018-12-02T06:21:15.051Z,13.38
2018-12-02T06:21:47.657Z,14.07
2018-12-02T06:22:20.281Z,13.88
2018-12-02T06:22:54.817Z,14.10
2018-12-02T06:23:27.438Z,14.40
2018-12-02T06:24:00.035Z,12.78
2018-12-02T06:24:32.628Z,13.43
2018-12-02T06:25:05.753Z,14.58
2018-12-02T06:25:38.343Z,14.55
2018-12-02T06:26:10.959Z,12.50
2018-12-02T06:26:43.591Z,14.55
2018-12-02T06:27:16.217Z,13.38
2018-12-02T06:27:48.829Z,14.25
2018-12-02T06:28:21.474Z,12.60
2018-12-02T06:28:54.074Z,13.72
2018-12-02T06:29:26.656Z,13.85
2018-12-02T06:29:59.253Z,14.23
2018-12-02T06:30:31.886Z,14.50
2018-12-02T06:31:04.508Z,14.65
2018-12-02T06:31:37.109Z,14.03
2018-12-02T06:32:09.732Z,13.22
2018-12-02T06:32:42.350Z,15.28
2018-12-02T06:33:14.952Z,13.78
2018-12-02T06:33:47.568Z,14.68
2018-12-02T06:34:20.179Z,14.10
2018-12-02T06:34:52.815Z,13.65
2018-12-02T06:35:25.432Z,13.43
2018-12-02T06:35:58.037Z,14.87
2018-12-02T06:36:30.637Z,14.98
2018-12-02T06:37:03.273Z,14.35
2018-12-02T06:37:35.877Z,13.10
2018-12-02T06:38:08.501Z,15.23
2018-12-02T06:38:41.111Z,15.35
2018-12-02T06:39:13.751Z,14.50
2018-12-02T06:39:46.371Z,15.08
2018-12-02T06:40:21.014Z,14.35
2018-12-02T06:40:53.643Z,15.30
2018-12-02T06:41:26.250Z,13.95
2018-12-02T06:41:58.833Z,13.15
2018-12-02T06:42:31.447Z,13.95
2018-12-02T06:43:04.065Z,13.95
2018-12-02T06:43:36.688Z,14.10
2018-12-02T06:44:09.290Z,14.47
2018-12-02T06:44:41.935Z,14.55
2018-12-02T06:45:14.646Z,15.05
2018-12-02T06:45:47.245Z,14.38
2018-12-02T06:46:19.849Z,14.68
2018-12-02T06:46:52.495Z,14.80
2018-12-02T06:47:25.112Z,14.25
2018-12-02T06:47:57.704Z,14.20
2018-12-02T06:48:30.322Z,14.90
2018-12-02T06:49:02.945Z,14.00
2018-12-02T06:49:35.586Z,14.15
2018-12-02T06:50:10.176Z,15.32
2018-12-02T06:50:42.786Z,15.95
2018-12-02T06:51:15.368Z,13.68
2018-12-02T06:51:47.964Z,13.88
2018-12-02T06:52:20.566Z,15.38
2018-12-02T06:52:53.812Z,13.60
2018-12-02T06:53:26.415Z,14.73
2018-12-02T06:53:59.008Z,14.73
2018-12-02T06:54:38.124Z,16.35
2018-12-02T06:55:19.144Z,15.60
2018-12-02T06:55:58.887Z,15.15
2018-12-02T06:56:37.460Z,15.48
2018-12-02T06:57:15.528Z,16.82
2018-12-02T06:57:55.715Z,20.17
2018-12-02T06:58:41.754Z,16.73
2018-12-02T06:59:25.205Z,14.83
2018-12-02T07:00:06.888Z,15.65
2018-12-02T07:01:03.042Z,13.75
2018-12-02T07:02:24.554Z,14.43
2018-12-02T07:03:15.097Z,14.43
2018-12-02T07:04:04.572Z,16.00
2018-12-02T07:04:38.959Z,15.40
2018-12-02T07:05:18.085Z,16.57
2018-12-02T07:05:50.702Z,15.40
2018-12-02T07:06:23.341Z,14.65
2018-12-02T07:06:56.461Z,13.98
2018-12-02T07:07:29.052Z,14.28
2018-12-02T07:08:01.664Z,14.85